sensor_id;sensor_type;location;lat;lon;timestamp;temperature;humidity
3919;DHT22;1974;48.670;8.994;2022-12-07T00:01:22;3.80;99.90
3919;DHT22;1974;48.670;8.994;2022-12-07T00:03:51;3.80;99.90
3919;DHT22;1974;48.670;8.994;2022-12-07T00:06:18;3.80;99.90
3919;DHT22;1974;48.670;8.994;2022-12-07T00:08:46;3.70;99.90
3919;DHT22;1974;48.670;8.994;2022-12-07T00:11:14;3.70;99.90
3919;DHT22;1974;48.670;8.994;2022-12-07T00:13:42;3.70;99.90
3919;DHT22;1974;48.670;8.994;2022-12-07T00:16:10;3.80;99.90
3919;DHT22;1974;48.670;8.994;2022-12-07T00:18:39;3.80;99.90
3919;DHT22;1974;48.670;8.994;2022-12-07T00:21:09;3.90;99.90
3919;DHT22;1974;48.670;8.994;2022-12-07T00:23:37;3.90;99.90
3919;DHT22;1974;48.670;8.994;2022-12-07T00:26:05;3.90;99.90
3919;DHT22;1974;48.670;8.994;2022-12-07T00:28:32;3.90;99.90
3919;DHT22;1974;48.670;8.994;2022-12-07T00:31:01;4.00;99.90
3919;DHT22;1974;48.670;8.994;2022-12-07T00:33:28;3.90;99.90
3919;DHT22;1974;48.670;8.994;2022-12-07T00:35:57;3.90;99.90
3919;DHT22;1974;48.670;8.994;2022-12-07T00:38:26;3.90;99.90
3919;DHT22;1974;48.670;8.994;2022-12-07T00:40:55;3.80;99.90
3919;DHT22;1974;48.670;8.994;2022-12-07T00:43:22;3.90;99.90
3919;DHT22;1974;48.670;8.994;2022-12-07T00:45:48;3.90;99.90
3919;DHT22;1974;48.670;8.994;2022-12-07T00:48:15;3.90;99.90
3919;DHT22;1974;48.670;8.994;2022-12-07T00:50:42;3.80;99.90
3919;DHT22;1974;48.670;8.994;2022-12-07T00:53:10;3.90;99.90
3919;DHT22;1974;48.670;8.994;2022-12-07T00:55:37;3.90;99.90
3919;DHT22;1974;48.670;8.994;2022-12-07T00:58:04;3.90;99.90
3919;DHT22;1974;48.670;8.994;2022-12-07T01:00:32;3.90;99.90
3919;DHT22;1974;48.670;8.994;2022-12-07T01:03:00;3.90;99.90
3919;DHT22;1974;48.670;8.994;2022-12-07T01:05:27;3.90;99.90
3919;DHT22;1974;48.670;8.994;2022-12-07T01:07:53;3.90;99.90
3919;DHT22;1974;48.670;8.994;2022-12-07T01:10:22;3.90;99.90
3919;DHT22;1974;48.670;8.994;2022-12-07T01:12:49;3.80;99.90
3919;DHT22;1974;48.670;8.994;2022-12-07T01:15:16;3.90;99.90
3919;DHT22;1974;48.670;8.994;2022-12-07T01:17:43;3.90;99.90
3919;DHT22;1974;48.670;8.994;2022-12-07T01:20:11;3.90;99.90
3919;DHT22;1974;48.670;8.994;2022-12-07T01:22:38;3.90;99.90
3919;DHT22;1974;48.670;8.994;2022-12-07T01:25:06;3.90;99.90
3919;DHT22;1974;48.670;8.994;2022-12-07T01:27:35;3.90;99.90
3919;DHT22;1974;48.670;8.994;2022-12-07T01:30:04;3.90;99.90
3919;DHT22;1974;48.670;8.994;2022-12-07T01:32:32;3.90;99.90
3919;DHT22;1974;48.670;8.994;2022-12-07T01:34:59;3.80;99.90
3919;DHT22;1974;48.670;8.994;2022-12-07T01:37:26;3.80;99.90
3919;DHT22;1974;48.670;8.994;2022-12-07T01:39:52;3.80;99.90
3919;DHT22;1974;48.670;8.994;2022-12-07T01:42:19;3.70;99.90
3919;DHT22;1974;48.670;8.994;2022-12-07T01:45:25;3.80;99.90
3919;DHT22;1974;48.670;8.994;2022-12-07T01:48:00;3.80;99.90
3919;DHT22;1974;48.670;8.994;2022-12-07T01:50:29;3.80;99.90
3919;DHT22;1974;48.670;8.994;2022-12-07T01:52:58;3.70;99.90
3919;DHT22;1974;48.670;8.994;2022-12-07T01:55:25;3.70;99.90
3919;DHT22;1974;48.670;8.994;2022-12-07T01:57:54;3.70;99.90
3919;DHT22;1974;48.670;8.994;2022-12-07T02:00:23;3.70;99.90
3919;DHT22;1974;48.670;8.994;2022-12-07T02:02:53;3.70;99.90
3919;DHT22;1974;48.670;8.994;2022-12-07T02:05:21;3.70;99.90
3919;DHT22;1974;48.670;8.994;2022-12-07T02:07:50;3.70;99.90
3919;DHT22;1974;48.670;8.994;2022-12-07T02:10:19;3.70;99.90
3919;DHT22;1974;48.670;8.994;2022-12-07T02:12:48;3.70;99.90
3919;DHT22;1974;48.670;8.994;2022-12-07T02:15:16;3.70;99.90
3919;DHT22;1974;48.670;8.994;2022-12-07T02:17:50;3.70;99.90
3919;DHT22;1974;48.670;8.994;2022-12-07T02:20:23;3.70;99.90
3919;DHT22;1974;48.670;8.994;2022-12-07T02:23:04;3.70;99.90
3919;DHT22;1974;48.670;8.994;2022-12-07T02:25:59;3.70;99.90
3919;DHT22;1974;48.670;8.994;2022-12-07T02:28:32;3.60;99.90
3919;DHT22;1974;48.670;8.994;2022-12-07T02:31:06;3.60;99.90
3919;DHT22;1974;48.670;8.994;2022-12-07T02:33:38;3.60;99.90
3919;DHT22;1974;48.670;8.994;2022-12-07T02:36:10;3.60;99.90
3919;DHT22;1974;48.670;8.994;2022-12-07T02:38:43;3.60;99.90
3919;DHT22;1974;48.670;8.994;2022-12-07T02:41:13;3.60;99.90
3919;DHT22;1974;48.670;8.994;2022-12-07T02:43:45;3.60;99.90
3919;DHT22;1974;48.670;8.994;2022-12-07T02:46:16;3.60;99.90
3919;DHT22;1974;48.670;8.994;2022-12-07T02:48:45;3.60;99.90
3919;DHT22;1974;48.670;8.994;2022-12-07T02:51:12;3.60;99.90
3919;DHT22;1974;48.670;8.994;2022-12-07T02:53:40;3.60;99.90
3919;DHT22;1974;48.670;8.994;2022-12-07T02:56:13;3.60;99.90
3919;DHT22;1974;48.670;8.994;2022-12-07T02:58:50;3.60;99.90
3919;DHT22;1974;48.670;8.994;2022-12-07T03:01:28;3.60;99.90
3919;DHT22;1974;48.670;8.994;2022-12-07T03:04:03;3.60;99.90
3919;DHT22;1974;48.670;8.994;2022-12-07T03:06:36;3.60;99.90
3919;DHT22;1974;48.670;8.994;2022-12-07T03:09:12;3.60;99.90
3919;DHT22;1974;48.670;8.994;2022-12-07T03:11:46;3.60;99.90
3919;DHT22;1974;48.670;8.994;2022-12-07T03:14:17;3.60;99.90
3919;DHT22;1974;48.670;8.994;2022-12-07T03:16:52;3.60;99.90
3919;DHT22;1974;48.670;8.994;2022-12-07T03:19:20;3.60;99.90
3919;DHT22;1974;48.670;8.994;2022-12-07T03:21:53;3.60;99.90
3919;DHT22;1974;48.670;8.994;2022-12-07T03:24:26;3.60;99.90
3919;DHT22;1974;48.670;8.994;2022-12-07T03:26:57;3.60;99.90
3919;DHT22;1974;48.670;8.994;2022-12-07T03:29:29;3.60;99.90
3919;DHT22;1974;48.670;8.994;2022-12-07T03:32:02;3.60;99.90
3919;DHT22;1974;48.670;8.994;2022-12-07T03:34:33;3.60;99.90
3919;DHT22;1974;48.670;8.994;2022-12-07T03:37:03;3.60;99.90
3919;DHT22;1974;48.670;8.994;2022-12-07T03:39:36;3.60;99.90
3919;DHT22;1974;48.670;8.994;2022-12-07T03:42:05;3.50;99.90
3919;DHT22;1974;48.670;8.994;2022-12-07T03:44:35;3.50;99.90
3919;DHT22;1974;48.670;8.994;2022-12-07T03:47:07;3.50;99.90
3919;DHT22;1974;48.670;8.994;2022-12-07T03:49:43;3.50;99.90
3919;DHT22;1974;48.670;8.994;2022-12-07T03:52:18;3.50;99.90
3919;DHT22;1974;48.670;8.994;2022-12-07T03:54:53;3.40;99.90
3919;DHT22;1974;48.670;8.994;2022-12-07T03:57:24;3.40;99.90
3919;DHT22;1974;48.670;8.994;2022-12-07T03:59:54;3.40;99.90
3919;DHT22;1974;48.670;8.994;2022-12-07T04:02:23;3.50;99.90
3919;DHT22;1974;48.670;8.994;2022-12-07T04:04:51;3.40;99.90
3919;DHT22;1974;48.670;8.994;2022-12-07T04:07:18;3.40;99.90
3919;DHT22;1974;48.670;8.994;2022-12-07T04:09:45;3.40;99.90
3919;DHT22;1974;48.670;8.994;2022-12-07T04:12:12;3.40;99.90
3919;DHT22;1974;48.670;8.994;2022-12-07T04:14:39;3.40;99.90
3919;DHT22;1974;48.670;8.994;2022-12-07T04:17:05;3.40;99.90
3919;DHT22;1974;48.670;8.994;2022-12-07T04:19:34;3.40;99.90
3919;DHT22;1974;48.670;8.994;2022-12-07T04:22:02;3.40;99.90
3919;DHT22;1974;48.670;8.994;2022-12-07T04:24:30;3.40;99.90
3919;DHT22;1974;48.670;8.994;2022-12-07T04:26:57;3.40;99.90
3919;DHT22;1974;48.670;8.994;2022-12-07T04:29:24;3.30;99.90
3919;DHT22;1974;48.670;8.994;2022-12-07T04:31:51;3.30;99.90
3919;DHT22;1974;48.670;8.994;2022-12-07T04:34:18;3.30;99.90
3919;DHT22;1974;48.670;8.994;2022-12-07T04:36:47;3.30;99.90
3919;DHT22;1974;48.670;8.994;2022-12-07T04:39:19;3.30;99.90
3919;DHT22;1974;48.670;8.994;2022-12-07T04:41:46;3.30;99.90
3919;DHT22;1974;48.670;8.994;2022-12-07T04:44:13;3.30;99.90
3919;DHT22;1974;48.670;8.994;2022-12-07T04:46:40;3.30;99.90
3919;DHT22;1974;48.670;8.994;2022-12-07T04:49:08;3.30;99.90
3919;DHT22;1974;48.670;8.994;2022-12-07T04:51:34;3.30;99.90
3919;DHT22;1974;48.670;8.994;2022-12-07T04:54:02;3.30;99.90
3919;DHT22;1974;48.670;8.994;2022-12-07T04:56:29;3.30;99.90
3919;DHT22;1974;48.670;8.994;2022-12-07T04:58:56;3.30;99.90
3919;DHT22;1974;48.670;8.994;2022-12-07T05:01:24;3.30;99.90
3919;DHT22;1974;48.670;8.994;2022-12-07T05:03:50;3.20;99.90
3919;DHT22;1974;48.670;8.994;2022-12-07T05:06:17;3.20;99.90
3919;DHT22;1974;48.670;8.994;2022-12-07T05:08:44;3.20;99.90
3919;DHT22;1974;48.670;8.994;2022-12-07T05:11:14;3.00;99.90
3919;DHT22;1974;48.670;8.994;2022-12-07T05:14:01;3.00;99.90
3919;DHT22;1974;48.670;8.994;2022-12-07T05:16:29;2.90;99.90
3919;DHT22;1974;48.670;8.994;2022-12-07T05:18:56;2.80;99.90
3919;DHT22;1974;48.670;8.994;2022-12-07T05:21:23;2.70;99.90
3919;DHT22;1974;48.670;8.994;2022-12-07T05:23:50;2.70;99.90
3919;DHT22;1974;48.670;8.994;2022-12-07T05:26:18;2.70;99.90
3919;DHT22;1974;48.670;8.994;2022-12-07T05:28:45;2.70;99.90
3919;DHT22;1974;48.670;8.994;2022-12-07T05:31:15;2.70;99.90
3919;DHT22;1974;48.670;8.994;2022-12-07T05:33:42;2.70;99.90
3919;DHT22;1974;48.670;8.994;2022-12-07T05:36:09;2.60;99.90
3919;DHT22;1974;48.670;8.994;2022-12-07T05:38:36;2.50;99.90
3919;DHT22;1974;48.670;8.994;2022-12-07T05:41:04;2.40;99.90
3919;DHT22;1974;48.670;8.994;2022-12-07T05:43:33;2.40;99.90
3919;DHT22;1974;48.670;8.994;2022-12-07T05:46:00;2.30;99.90
3919;DHT22;1974;48.670;8.994;2022-12-07T05:48:27;2.30;99.90
3919;DHT22;1974;48.670;8.994;2022-12-07T05:50:53;2.20;99.90
3919;DHT22;1974;48.670;8.994;2022-12-07T05:53:20;2.10;99.90
3919;DHT22;1974;48.670;8.994;2022-12-07T05:55:47;2.10;99.90
3919;DHT22;1974;48.670;8.994;2022-12-07T05:58:14;2.00;99.90
3919;DHT22;1974;48.670;8.994;2022-12-07T06:00:59;1.90;99.90
3919;DHT22;1974;48.670;8.994;2022-12-07T06:03:26;1.90;99.90
3919;DHT22;1974;48.670;8.994;2022-12-07T06:05:53;1.90;99.90
3919;DHT22;1974;48.670;8.994;2022-12-07T06:08:20;1.90;99.90
3919;DHT22;1974;48.670;8.994;2022-12-07T06:10:47;1.90;99.90
3919;DHT22;1974;48.670;8.994;2022-12-07T06:13:36;1.80;99.90
3919;DHT22;1974;48.670;8.994;2022-12-07T06:16:03;1.80;99.90
3919;DHT22;1974;48.670;8.994;2022-12-07T06:18:30;1.80;99.90
3919;DHT22;1974;48.670;8.994;2022-12-07T06:20:57;1.90;99.90
3919;DHT22;1974;48.670;8.994;2022-12-07T06:23:24;2.00;99.90
3919;DHT22;1974;48.670;8.994;2022-12-07T06:25:50;2.00;99.90
3919;DHT22;1974;48.670;8.994;2022-12-07T06:28:17;2.10;99.90
3919;DHT22;1974;48.670;8.994;2022-12-07T06:30:44;2.10;99.90
3919;DHT22;1974;48.670;8.994;2022-12-07T06:33:12;2.10;99.90
3919;DHT22;1974;48.670;8.994;2022-12-07T06:35:39;2.20;99.90
3919;DHT22;1974;48.670;8.994;2022-12-07T06:38:06;2.20;99.90
3919;DHT22;1974;48.670;8.994;2022-12-07T06:40:32;2.30;99.90
3919;DHT22;1974;48.670;8.994;2022-12-07T06:42:59;2.40;99.90
3919;DHT22;1974;48.670;8.994;2022-12-07T06:45:26;2.30;99.90
3919;DHT22;1974;48.670;8.994;2022-12-07T06:47:53;2.40;99.90
3919;DHT22;1974;48.670;8.994;2022-12-07T06:50:21;2.40;99.90
3919;DHT22;1974;48.670;8.994;2022-12-07T06:52:47;2.40;99.90
3919;DHT22;1974;48.670;8.994;2022-12-07T06:55:14;2.40;99.90
3919;DHT22;1974;48.670;8.994;2022-12-07T06:57:41;2.40;99.90
3919;DHT22;1974;48.670;8.994;2022-12-07T07:00:09;2.30;99.90
3919;DHT22;1974;48.670;8.994;2022-12-07T07:02:36;2.20;99.90
3919;DHT22;1974;48.670;8.994;2022-12-07T07:05:03;2.20;99.90
3919;DHT22;1974;48.670;8.994;2022-12-07T07:07:31;2.20;99.90
3919;DHT22;1974;48.670;8.994;2022-12-07T07:09:58;2.20;99.90
3919;DHT22;1974;48.670;8.994;2022-12-07T07:12:25;2.30;99.90
3919;DHT22;1974;48.670;8.994;2022-12-07T07:14:51;2.30;99.90
3919;DHT22;1974;48.670;8.994;2022-12-07T07:17:18;2.30;99.90
3919;DHT22;1974;48.670;8.994;2022-12-07T07:19:45;2.30;99.90
3919;DHT22;1974;48.670;8.994;2022-12-07T07:22:12;2.40;99.90
3919;DHT22;1974;48.670;8.994;2022-12-07T07:24:40;2.40;99.90
3919;DHT22;1974;48.670;8.994;2022-12-07T07:27:06;2.30;99.90
3919;DHT22;1974;48.670;8.994;2022-12-07T07:29:33;2.40;99.90
3919;DHT22;1974;48.670;8.994;2022-12-07T07:32:00;2.40;99.90
3919;DHT22;1974;48.670;8.994;2022-12-07T07:34:27;2.40;99.90
3919;DHT22;1974;48.670;8.994;2022-12-07T07:36:54;2.30;99.90
3919;DHT22;1974;48.670;8.994;2022-12-07T07:39:20;2.40;99.90
3919;DHT22;1974;48.670;8.994;2022-12-07T07:41:49;2.40;99.90
3919;DHT22;1974;48.670;8.994;2022-12-07T07:44:15;2.30;99.90
3919;DHT22;1974;48.670;8.994;2022-12-07T07:46:42;2.40;99.90
3919;DHT22;1974;48.670;8.994;2022-12-07T07:49:09;2.40;99.90
3919;DHT22;1974;48.670;8.994;2022-12-07T07:51:36;2.50;99.90
3919;DHT22;1974;48.670;8.994;2022-12-07T07:54:03;2.50;99.90
3919;DHT22;1974;48.670;8.994;2022-12-07T07:56:30;2.50;99.90
3919;DHT22;1974;48.670;8.994;2022-12-07T07:58:58;2.60;99.90
3919;DHT22;1974;48.670;8.994;2022-12-07T08:01:25;2.70;99.90
3919;DHT22;1974;48.670;8.994;2022-12-07T08:03:51;2.70;99.90
3919;DHT22;1974;48.670;8.994;2022-12-07T08:06:18;2.80;99.90
3919;DHT22;1974;48.670;8.994;2022-12-07T08:08:45;2.90;99.90
3919;DHT22;1974;48.670;8.994;2022-12-07T08:11:12;2.90;99.90
3919;DHT22;1974;48.670;8.994;2022-12-07T08:13:39;2.90;99.90
3919;DHT22;1974;48.670;8.994;2022-12-07T08:16:09;2.90;99.90
3919;DHT22;1974;48.670;8.994;2022-12-07T08:18:37;2.80;99.90
3919;DHT22;1974;48.670;8.994;2022-12-07T08:21:05;2.80;99.90
3919;DHT22;1974;48.670;8.994;2022-12-07T08:23:33;2.90;99.90
3919;DHT22;1974;48.670;8.994;2022-12-07T08:26:00;3.00;99.90
3919;DHT22;1974;48.670;8.994;2022-12-07T08:28:27;3.10;99.90
3919;DHT22;1974;48.670;8.994;2022-12-07T08:30:58;3.10;99.90
3919;DHT22;1974;48.670;8.994;2022-12-07T08:33:27;3.10;99.90
3919;DHT22;1974;48.670;8.994;2022-12-07T08:35:54;3.10;99.90
3919;DHT22;1974;48.670;8.994;2022-12-07T08:38:21;3.10;99.90
3919;DHT22;1974;48.670;8.994;2022-12-07T08:40:53;3.00;99.90
3919;DHT22;1974;48.670;8.994;2022-12-07T08:43:21;3.00;99.90
3919;DHT22;1974;48.670;8.994;2022-12-07T08:45:49;3.10;99.90
3919;DHT22;1974;48.670;8.994;2022-12-07T08:48:19;3.20;99.90
3919;DHT22;1974;48.670;8.994;2022-12-07T08:50:51;3.30;99.90
3919;DHT22;1974;48.670;8.994;2022-12-07T08:53:18;3.40;99.90
3919;DHT22;1974;48.670;8.994;2022-12-07T08:55:45;3.50;99.90
3919;DHT22;1974;48.670;8.994;2022-12-07T08:58:12;3.60;99.90
3919;DHT22;1974;48.670;8.994;2022-12-07T09:00:39;3.60;99.90
3919;DHT22;1974;48.670;8.994;2022-12-07T09:03:06;3.70;99.90
3919;DHT22;1974;48.670;8.994;2022-12-07T09:05:33;3.70;99.90
3919;DHT22;1974;48.670;8.994;2022-12-07T09:08:02;3.80;99.90
3919;DHT22;1974;48.670;8.994;2022-12-07T09:10:29;3.80;99.90
3919;DHT22;1974;48.670;8.994;2022-12-07T09:12:55;3.80;99.90
3919;DHT22;1974;48.670;8.994;2022-12-07T09:15:26;3.80;99.90
3919;DHT22;1974;48.670;8.994;2022-12-07T09:17:53;3.90;99.90
3919;DHT22;1974;48.670;8.994;2022-12-07T09:20:20;4.00;99.90
3919;DHT22;1974;48.670;8.994;2022-12-07T09:22:46;4.00;99.90
3919;DHT22;1974;48.670;8.994;2022-12-07T09:25:15;4.10;99.90
3919;DHT22;1974;48.670;8.994;2022-12-07T09:27:42;4.20;99.90
3919;DHT22;1974;48.670;8.994;2022-12-07T09:30:09;4.30;99.90
3919;DHT22;1974;48.670;8.994;2022-12-07T09:32:36;4.40;99.90
3919;DHT22;1974;48.670;8.994;2022-12-07T09:35:03;4.50;99.90
3919;DHT22;1974;48.670;8.994;2022-12-07T09:37:30;4.50;99.90
3919;DHT22;1974;48.670;8.994;2022-12-07T09:40:00;4.60;99.90
3919;DHT22;1974;48.670;8.994;2022-12-07T09:42:32;4.60;99.90
3919;DHT22;1974;48.670;8.994;2022-12-07T09:45:00;4.70;99.90
3919;DHT22;1974;48.670;8.994;2022-12-07T09:47:27;4.70;99.90
3919;DHT22;1974;48.670;8.994;2022-12-07T09:50:00;4.70;99.90
3919;DHT22;1974;48.670;8.994;2022-12-07T09:52:29;4.70;99.90
3919;DHT22;1974;48.670;8.994;2022-12-07T09:54:57;4.70;99.90
3919;DHT22;1974;48.670;8.994;2022-12-07T09:57:30;4.80;99.90
3919;DHT22;1974;48.670;8.994;2022-12-07T10:00:01;4.80;99.90
3919;DHT22;1974;48.670;8.994;2022-12-07T10:02:35;5.00;99.90
3919;DHT22;1974;48.670;8.994;2022-12-07T10:05:04;5.00;99.90
3919;DHT22;1974;48.670;8.994;2022-12-07T10:07:32;4.80;99.90
3919;DHT22;1974;48.670;8.994;2022-12-07T10:09:59;4.80;99.90
3919;DHT22;1974;48.670;8.994;2022-12-07T10:12:25;4.90;99.90
3919;DHT22;1974;48.670;8.994;2022-12-07T10:15:00;5.00;99.90
3919;DHT22;1974;48.670;8.994;2022-12-07T10:17:31;5.10;99.90
3919;DHT22;1974;48.670;8.994;2022-12-07T10:20:16;5.20;99.90
3919;DHT22;1974;48.670;8.994;2022-12-07T10:22:57;5.30;99.90
3919;DHT22;1974;48.670;8.994;2022-12-07T10:25:27;5.40;99.90
3919;DHT22;1974;48.670;8.994;2022-12-07T10:28:02;5.50;99.90
3919;DHT22;1974;48.670;8.994;2022-12-07T10:30:31;5.50;99.90
3919;DHT22;1974;48.670;8.994;2022-12-07T10:32:59;5.40;99.90
3919;DHT22;1974;48.670;8.994;2022-12-07T10:35:28;5.30;99.90
3919;DHT22;1974;48.670;8.994;2022-12-07T10:37:56;5.50;99.90
3919;DHT22;1974;48.670;8.994;2022-12-07T10:40:32;5.40;99.90
3919;DHT22;1974;48.670;8.994;2022-12-07T10:43:18;5.50;99.90
3919;DHT22;1974;48.670;8.994;2022-12-07T10:46:07;5.60;99.90
3919;DHT22;1974;48.670;8.994;2022-12-07T10:48:50;5.60;99.90
3919;DHT22;1974;48.670;8.994;2022-12-07T10:51:24;5.70;99.90
3919;DHT22;1974;48.670;8.994;2022-12-07T10:54:00;5.80;99.90
3919;DHT22;1974;48.670;8.994;2022-12-07T10:56:47;5.70;99.90
3919;DHT22;1974;48.670;8.994;2022-12-07T11:02:36;5.60;99.90
3919;DHT22;1974;48.670;8.994;2022-12-07T11:05:15;5.60;99.90
3919;DHT22;1974;48.670;8.994;2022-12-07T11:07:52;5.60;99.90
3919;DHT22;1974;48.670;8.994;2022-12-07T11:10:26;5.70;99.90
3919;DHT22;1974;48.670;8.994;2022-12-07T11:13:04;5.70;99.90
3919;DHT22;1974;48.670;8.994;2022-12-07T11:15:47;5.60;99.90
3919;DHT22;1974;48.670;8.994;2022-12-07T11:18:23;5.60;99.90
3919;DHT22;1974;48.670;8.994;2022-12-07T11:20:56;5.60;99.90
3919;DHT22;1974;48.670;8.994;2022-12-07T11:23:31;5.70;99.90
3919;DHT22;1974;48.670;8.994;2022-12-07T11:26:12;5.80;99.90
3919;DHT22;1974;48.670;8.994;2022-12-07T11:28:58;5.80;99.90
3919;DHT22;1974;48.670;8.994;2022-12-07T11:31:33;5.80;99.90
3919;DHT22;1974;48.670;8.994;2022-12-07T11:34:08;5.80;99.90
3919;DHT22;1974;48.670;8.994;2022-12-07T11:36:38;5.90;99.90
3919;DHT22;1974;48.670;8.994;2022-12-07T11:39:16;5.80;99.90
3919;DHT22;1974;48.670;8.994;2022-12-07T11:41:48;5.90;99.90
3919;DHT22;1974;48.670;8.994;2022-12-07T11:44:24;5.90;99.90
3919;DHT22;1974;48.670;8.994;2022-12-07T11:46:58;5.70;99.90
3919;DHT22;1974;48.670;8.994;2022-12-07T11:49:40;5.70;99.90
3919;DHT22;1974;48.670;8.994;2022-12-07T11:52:17;5.80;99.90
3919;DHT22;1974;48.670;8.994;2022-12-07T11:54:46;5.90;99.90
3919;DHT22;1974;48.670;8.994;2022-12-07T11:57:20;6.00;99.90
3919;DHT22;1974;48.670;8.994;2022-12-07T11:59:50;6.10;99.90
3919;DHT22;1974;48.670;8.994;2022-12-07T12:02:22;6.10;99.90
3919;DHT22;1974;48.670;8.994;2022-12-07T12:04:55;6.00;99.90
3919;DHT22;1974;48.670;8.994;2022-12-07T12:07:26;5.90;99.90
3919;DHT22;1974;48.670;8.994;2022-12-07T12:09:57;5.80;99.90
3919;DHT22;1974;48.670;8.994;2022-12-07T12:15:27;5.80;99.90
3919;DHT22;1974;48.670;8.994;2022-12-07T12:18:23;5.70;99.90
3919;DHT22;1974;48.670;8.994;2022-12-07T12:20:56;5.70;99.90
3919;DHT22;1974;48.670;8.994;2022-12-07T12:23:29;5.60;99.90
3919;DHT22;1974;48.670;8.994;2022-12-07T12:26:03;5.60;99.90
3919;DHT22;1974;48.670;8.994;2022-12-07T12:28:37;5.60;99.90
3919;DHT22;1974;48.670;8.994;2022-12-07T12:31:13;5.60;99.90
3919;DHT22;1974;48.670;8.994;2022-12-07T12:33:43;5.50;99.90
3919;DHT22;1974;48.670;8.994;2022-12-07T12:36:25;5.40;99.90
3919;DHT22;1974;48.670;8.994;2022-12-07T12:39:09;5.50;99.90
3919;DHT22;1974;48.670;8.994;2022-12-07T12:41:58;5.50;99.90
3919;DHT22;1974;48.670;8.994;2022-12-07T12:47:42;5.60;99.90
3919;DHT22;1974;48.670;8.994;2022-12-07T12:50:17;5.70;99.90
3919;DHT22;1974;48.670;8.994;2022-12-07T12:58:41;5.60;99.90
3919;DHT22;1974;48.670;8.994;2022-12-07T13:01:38;5.60;99.90
3919;DHT22;1974;48.670;8.994;2022-12-07T13:04:26;5.60;99.90
3919;DHT22;1974;48.670;8.994;2022-12-07T13:06:54;5.60;99.90
3919;DHT22;1974;48.670;8.994;2022-12-07T13:09:24;5.60;99.90
3919;DHT22;1974;48.670;8.994;2022-12-07T13:12:01;5.60;99.90
3919;DHT22;1974;48.670;8.994;2022-12-07T13:14:56;5.60;99.90
3919;DHT22;1974;48.670;8.994;2022-12-07T13:17:55;5.60;99.90
3919;DHT22;1974;48.670;8.994;2022-12-07T13:20:54;5.70;99.90
3919;DHT22;1974;48.670;8.994;2022-12-07T13:23:25;5.60;99.90
3919;DHT22;1974;48.670;8.994;2022-12-07T13:26:02;5.60;99.90
3919;DHT22;1974;48.670;8.994;2022-12-07T13:28:35;5.60;99.90
3919;DHT22;1974;48.670;8.994;2022-12-07T13:31:30;5.60;99.90
3919;DHT22;1974;48.670;8.994;2022-12-07T13:33:58;5.60;99.90
3919;DHT22;1974;48.670;8.994;2022-12-07T13:36:27;5.60;99.90
3919;DHT22;1974;48.670;8.994;2022-12-07T13:38:58;5.50;99.90
3919;DHT22;1974;48.670;8.994;2022-12-07T13:41:28;5.50;99.90
3919;DHT22;1974;48.670;8.994;2022-12-07T13:44:01;5.50;99.90
3919;DHT22;1974;48.670;8.994;2022-12-07T13:46:36;5.40;99.90
3919;DHT22;1974;48.670;8.994;2022-12-07T13:49:17;5.50;99.90
3919;DHT22;1974;48.670;8.994;2022-12-07T13:51:44;5.40;99.90
3919;DHT22;1974;48.670;8.994;2022-12-07T13:54:13;5.40;99.90
3919;DHT22;1974;48.670;8.994;2022-12-07T13:56:41;5.40;99.90
3919;DHT22;1974;48.670;8.994;2022-12-07T13:59:14;5.40;99.90
3919;DHT22;1974;48.670;8.994;2022-12-07T14:01:42;5.30;99.90
3919;DHT22;1974;48.670;8.994;2022-12-07T14:04:30;5.20;99.90
3919;DHT22;1974;48.670;8.994;2022-12-07T14:06:57;5.30;99.90
3919;DHT22;1974;48.670;8.994;2022-12-07T14:09:25;5.30;99.90
3919;DHT22;1974;48.670;8.994;2022-12-07T14:11:56;5.20;99.90
3919;DHT22;1974;48.670;8.994;2022-12-07T14:14:25;5.10;99.90
3919;DHT22;1974;48.670;8.994;2022-12-07T14:16:58;5.10;99.90
3919;DHT22;1974;48.670;8.994;2022-12-07T14:19:49;5.10;99.90
3919;DHT22;1974;48.670;8.994;2022-12-07T14:22:23;5.00;99.90
3919;DHT22;1974;48.670;8.994;2022-12-07T14:24:57;4.90;99.90
3919;DHT22;1974;48.670;8.994;2022-12-07T14:27:32;4.90;99.90
3919;DHT22;1974;48.670;8.994;2022-12-07T14:30:01;4.90;99.90
3919;DHT22;1974;48.670;8.994;2022-12-07T14:32:29;4.80;99.90
3919;DHT22;1974;48.670;8.994;2022-12-07T14:35:02;4.90;99.90
3919;DHT22;1974;48.670;8.994;2022-12-07T14:37:29;4.80;99.90
3919;DHT22;1974;48.670;8.994;2022-12-07T14:39:56;4.80;99.90
3919;DHT22;1974;48.670;8.994;2022-12-07T14:42:28;4.70;99.90
3919;DHT22;1974;48.670;8.994;2022-12-07T14:44:57;4.70;99.90
3919;DHT22;1974;48.670;8.994;2022-12-07T14:47:25;4.70;99.90
3919;DHT22;1974;48.670;8.994;2022-12-07T14:49:52;4.60;99.90
3919;DHT22;1974;48.670;8.994;2022-12-07T14:52:21;4.60;99.90
3919;DHT22;1974;48.670;8.994;2022-12-07T14:54:49;4.60;99.90
3919;DHT22;1974;48.670;8.994;2022-12-07T14:57:16;4.60;99.90
3919;DHT22;1974;48.670;8.994;2022-12-07T14:59:44;4.60;99.90
3919;DHT22;1974;48.670;8.994;2022-12-07T15:02:12;4.60;99.90
3919;DHT22;1974;48.670;8.994;2022-12-07T15:04:40;4.60;99.90
3919;DHT22;1974;48.670;8.994;2022-12-07T15:07:16;4.50;99.90
3919;DHT22;1974;48.670;8.994;2022-12-07T15:09:44;4.50;99.90
3919;DHT22;1974;48.670;8.994;2022-12-07T15:12:11;4.50;99.90
3919;DHT22;1974;48.670;8.994;2022-12-07T15:14:38;4.50;99.90
3919;DHT22;1974;48.670;8.994;2022-12-07T15:17:06;4.50;99.90
3919;DHT22;1974;48.670;8.994;2022-12-07T15:19:32;4.50;99.90
3919;DHT22;1974;48.670;8.994;2022-12-07T15:21:59;4.50;99.90
3919;DHT22;1974;48.670;8.994;2022-12-07T15:24:26;4.50;99.90
3919;DHT22;1974;48.670;8.994;2022-12-07T15:26:53;4.50;99.90
3919;DHT22;1974;48.670;8.994;2022-12-07T15:29:20;4.50;99.90
3919;DHT22;1974;48.670;8.994;2022-12-07T15:31:48;4.50;99.90
3919;DHT22;1974;48.670;8.994;2022-12-07T15:34:16;4.50;99.90
3919;DHT22;1974;48.670;8.994;2022-12-07T15:36:43;4.50;99.90
3919;DHT22;1974;48.670;8.994;2022-12-07T15:39:10;4.50;99.90
3919;DHT22;1974;48.670;8.994;2022-12-07T15:41:37;4.50;99.90
3919;DHT22;1974;48.670;8.994;2022-12-07T15:44:04;4.40;99.90
3919;DHT22;1974;48.670;8.994;2022-12-07T15:46:48;4.40;99.90
3919;DHT22;1974;48.670;8.994;2022-12-07T15:49:18;4.40;99.90
3919;DHT22;1974;48.670;8.994;2022-12-07T15:51:45;4.40;99.90
3919;DHT22;1974;48.670;8.994;2022-12-07T15:54:14;4.40;99.90
3919;DHT22;1974;48.670;8.994;2022-12-07T15:56:42;4.40;99.90
3919;DHT22;1974;48.670;8.994;2022-12-07T15:59:09;4.40;99.90
3919;DHT22;1974;48.670;8.994;2022-12-07T16:01:35;4.30;99.90
3919;DHT22;1974;48.670;8.994;2022-12-07T16:04:02;4.20;99.90
3919;DHT22;1974;48.670;8.994;2022-12-07T16:06:30;4.30;99.90
3919;DHT22;1974;48.670;8.994;2022-12-07T16:08:57;4.20;99.90
3919;DHT22;1974;48.670;8.994;2022-12-07T16:11:24;4.20;99.90
3919;DHT22;1974;48.670;8.994;2022-12-07T16:13:51;4.20;99.90
3919;DHT22;1974;48.670;8.994;2022-12-07T16:16:19;4.20;99.90
3919;DHT22;1974;48.670;8.994;2022-12-07T16:18:48;4.20;99.90
3919;DHT22;1974;48.670;8.994;2022-12-07T16:21:16;4.20;99.90
3919;DHT22;1974;48.670;8.994;2022-12-07T16:23:44;4.10;99.90
3919;DHT22;1974;48.670;8.994;2022-12-07T16:26:12;4.10;99.90
3919;DHT22;1974;48.670;8.994;2022-12-07T16:28:39;4.10;99.90
3919;DHT22;1974;48.670;8.994;2022-12-07T16:31:09;4.10;99.90
3919;DHT22;1974;48.670;8.994;2022-12-07T16:33:36;4.10;99.90
3919;DHT22;1974;48.670;8.994;2022-12-07T16:36:05;4.10;99.90
3919;DHT22;1974;48.670;8.994;2022-12-07T16:38:33;4.10;99.90
3919;DHT22;1974;48.670;8.994;2022-12-07T16:41:01;4.00;99.90
3919;DHT22;1974;48.670;8.994;2022-12-07T16:43:28;4.00;99.90
3919;DHT22;1974;48.670;8.994;2022-12-07T16:45:54;4.00;99.90
3919;DHT22;1974;48.670;8.994;2022-12-07T16:48:21;4.00;99.90
3919;DHT22;1974;48.670;8.994;2022-12-07T16:50:48;4.00;99.90
3919;DHT22;1974;48.670;8.994;2022-12-07T16:53:15;4.00;99.90